Terminal Aerodrome Forecast
Issued by NWS Sterling, VA

Home | Current Version | Previous Version | Text Only | Print | Product List | Glossary On
Versions: 1 2 3 4 5 6 7 8 9 10 11 12 13
596
FTUS41 KLWX 232325
TAFCHO
TAF
KCHO 232325Z 2400/2424 19004KT P6SM SCT100
     FM240100 00000KT P6SM BKN100
     FM240400 35004KT P6SM SCT250
     FM241600 00000KT P6SM FEW050=

USA.gov is the U.S. government's official web portal to all federal, state and local government web resources and services.